sensor_id;sensor_type;location;lat;lon;timestamp;pressure;altitude;pressure_sealevel;temperature;humidity
6194;BME280;3130;41.564;23.280;2023-03-16T00:01:29;97782.91;;;9.58;77.66
6194;BME280;3130;41.564;23.280;2023-03-16T00:03:56;97789.31;;;9.64;77.54
6194;BME280;3130;41.564;23.280;2023-03-16T00:06:24;97691.25;;;9.07;77.65
6194;BME280;3130;41.564;23.280;2023-03-16T00:08:52;97712.34;;;9.32;77.57
6194;BME280;3130;41.564;23.280;2023-03-16T00:11:23;97788.63;;;9.73;77.68
6194;BME280;3130;41.564;23.280;2023-03-16T00:13:50;97784.22;;;9.75;77.85
6194;BME280;3130;41.564;23.280;2023-03-16T00:16:18;97780.13;;;9.72;78.00
6194;BME280;3130;41.564;23.280;2023-03-16T00:18:45;97666.88;;;9.03;77.91
6194;BME280;3130;41.564;23.280;2023-03-16T00:21:13;97752.91;;;9.60;77.76
6194;BME280;3130;41.564;23.280;2023-03-16T00:23:40;97783.38;;;9.74;78.04
6194;BME280;3130;41.564;23.280;2023-03-16T00:26:09;97781.88;;;9.72;78.16
6194;BME280;3130;41.564;23.280;2023-03-16T00:28:37;97749.28;;;9.52;78.03
6194;BME280;3130;41.564;23.280;2023-03-16T00:31:07;97758.59;;;9.64;77.85
6194;BME280;3130;41.564;23.280;2023-03-16T00:33:36;97757.53;;;9.55;77.92
6194;BME280;3130;41.564;23.280;2023-03-16T00:36:05;97787.00;;;9.72;77.91
6194;BME280;3130;41.564;23.280;2023-03-16T00:38:35;97786.66;;;9.65;78.03
6194;BME280;3130;41.564;23.280;2023-03-16T00:41:04;97783.47;;;9.62;78.04
6194;BME280;3130;41.564;23.280;2023-03-16T00:43:35;97798.75;;;9.63;77.82
6194;BME280;3130;41.564;23.280;2023-03-16T00:46:06;97793.28;;;9.68;77.15
6194;BME280;3130;41.564;23.280;2023-03-16T00:48:34;97724.34;;;9.21;76.18
6194;BME280;3130;41.564;23.280;2023-03-16T00:51:01;97733.88;;;9.30;74.80
6194;BME280;3130;41.564;23.280;2023-03-16T00:53:29;97806.19;;;9.77;74.26
6194;BME280;3130;41.564;23.280;2023-03-16T00:55:56;97808.84;;;9.76;73.42
6194;BME280;3130;41.564;23.280;2023-03-16T00:58:24;97802.38;;;9.72;73.31
6194;BME280;3130;41.564;23.280;2023-03-16T01:00:52;97719.34;;;9.30;73.07
6194;BME280;3130;41.564;23.280;2023-03-16T01:03:21;97766.47;;;9.50;72.25
6194;BME280;3130;41.564;23.280;2023-03-16T01:05:48;97764.28;;;9.45;71.62
6194;BME280;3130;41.564;23.280;2023-03-16T01:08:15;97799.88;;;9.59;71.27
6194;BME280;3130;41.564;23.280;2023-03-16T01:10:42;97772.59;;;9.36;70.90
6194;BME280;3130;41.564;23.280;2023-03-16T01:13:10;97805.34;;;9.55;70.53
6194;BME280;3130;41.564;23.280;2023-03-16T01:15:38;97795.19;;;9.42;70.22
6194;BME280;3130;41.564;23.280;2023-03-16T01:18:06;97744.13;;;8.96;70.54
6194;BME280;3130;41.564;23.280;2023-03-16T01:20:33;97795.69;;;9.24;70.48
6194;BME280;3130;41.564;23.280;2023-03-16T01:23:00;97815.00;;;9.28;70.25
6194;BME280;3130;41.564;23.280;2023-03-16T01:25:28;97742.63;;;8.81;70.36
6194;BME280;3130;41.564;23.280;2023-03-16T01:27:55;97815.47;;;9.22;70.09
6194;BME280;3130;41.564;23.280;2023-03-16T01:30:22;97779.25;;;9.04;70.14
6194;BME280;3130;41.564;23.280;2023-03-16T01:32:49;97821.59;;;9.19;69.98
6194;BME280;3130;41.564;23.280;2023-03-16T01:35:18;97734.38;;;8.77;69.81
6194;BME280;3130;41.564;23.280;2023-03-16T01:37:46;97820.72;;;9.31;69.12
6194;BME280;3130;41.564;23.280;2023-03-16T01:40:13;97829.22;;;9.32;69.06
6194;BME280;3130;41.564;23.280;2023-03-16T01:42:44;97822.19;;;9.23;68.81
6194;BME280;3130;41.564;23.280;2023-03-16T01:48:17;97832.66;;;9.20;68.64
6194;BME280;3130;41.564;23.280;2023-03-16T01:50:46;97836.72;;;9.22;68.58
6194;BME280;3130;41.564;23.280;2023-03-16T01:53:14;97813.06;;;9.08;68.40
6194;BME280;3130;41.564;23.280;2023-03-16T01:55:41;97830.69;;;9.23;68.07
6194;BME280;3130;41.564;23.280;2023-03-16T01:58:09;97805.94;;;9.00;67.55
6194;BME280;3130;41.564;23.280;2023-03-16T02:00:39;97806.06;;;8.99;67.21
6194;BME280;3130;41.564;23.280;2023-03-16T02:03:10;97819.75;;;8.98;66.72
6194;BME280;3130;41.564;23.280;2023-03-16T02:05:42;97763.53;;;8.51;66.90
6194;BME280;3130;41.564;23.280;2023-03-16T02:08:13;97791.47;;;8.65;66.78
6194;BME280;3130;41.564;23.280;2023-03-16T02:10:40;97853.53;;;8.91;66.83
6194;BME280;3130;41.564;23.280;2023-03-16T02:13:07;97828.34;;;8.74;67.02
6194;BME280;3130;41.564;23.280;2023-03-16T02:15:35;97747.66;;;8.10;67.33
6194;BME280;3130;41.564;23.280;2023-03-16T02:18:03;97845.31;;;8.75;67.08
6194;BME280;3130;41.564;23.280;2023-03-16T02:20:36;97850.72;;;8.70;67.25
6194;BME280;3130;41.564;23.280;2023-03-16T02:23:09;97850.50;;;8.73;66.67
6194;BME280;3130;41.564;23.280;2023-03-16T02:25:48;97793.09;;;8.30;66.50
6194;BME280;3130;41.564;23.280;2023-03-16T02:28:24;97697.91;;;7.68;66.45
6194;BME280;3130;41.564;23.280;2023-03-16T02:30:55;97784.34;;;8.22;66.16
6194;BME280;3130;41.564;23.280;2023-03-16T02:33:24;97861.78;;;8.58;66.06
6194;BME280;3130;41.564;23.280;2023-03-16T02:35:51;97858.38;;;8.34;66.43
6194;BME280;3130;41.564;23.280;2023-03-16T02:38:18;97875.72;;;8.42;66.64
6194;BME280;3130;41.564;23.280;2023-03-16T02:40:54;97878.28;;;8.42;66.92
6194;BME280;3130;41.564;23.280;2023-03-16T02:43:26;97850.28;;;8.15;66.76
6194;BME280;3130;41.564;23.280;2023-03-16T02:45:57;97886.16;;;8.39;66.62
6194;BME280;3130;41.564;23.280;2023-03-16T02:48:32;97873.50;;;8.25;66.51
6194;BME280;3130;41.564;23.280;2023-03-16T02:51:01;97809.56;;;7.77;66.81
6194;BME280;3130;41.564;23.280;2023-03-16T02:53:28;97896.38;;;8.26;67.10
6194;BME280;3130;41.564;23.280;2023-03-16T02:55:55;97901.34;;;8.28;67.20
6194;BME280;3130;41.564;23.280;2023-03-16T02:58:23;97878.16;;;8.06;66.52
6194;BME280;3130;41.564;23.280;2023-03-16T03:00:50;97881.44;;;8.08;66.21
6194;BME280;3130;41.564;23.280;2023-03-16T03:03:19;97907.38;;;8.14;66.56
6194;BME280;3130;41.564;23.280;2023-03-16T03:05:46;97876.31;;;7.96;66.13
6194;BME280;3130;41.564;23.280;2023-03-16T03:08:13;97888.22;;;7.83;67.04
6194;BME280;3130;41.564;23.280;2023-03-16T03:10:41;97848.19;;;7.58;66.48
6194;BME280;3130;41.564;23.280;2023-03-16T03:13:08;97905.09;;;7.85;66.56
6194;BME280;3130;41.564;23.280;2023-03-16T03:15:36;97934.19;;;7.95;67.00
6194;BME280;3130;41.564;23.280;2023-03-16T03:18:04;97933.38;;;7.95;67.03
6194;BME280;3130;41.564;23.280;2023-03-16T03:20:33;97920.91;;;7.78;67.22
6194;BME280;3130;41.564;23.280;2023-03-16T03:23:00;97830.56;;;7.16;67.46
6194;BME280;3130;41.564;23.280;2023-03-16T03:25:27;97865.81;;;7.36;67.69
6194;BME280;3130;41.564;23.280;2023-03-16T03:27:55;97943.84;;;7.78;67.67
6194;BME280;3130;41.564;23.280;2023-03-16T03:30:23;97944.84;;;7.75;67.86
6194;BME280;3130;41.564;23.280;2023-03-16T03:32:51;97958.53;;;7.74;67.70
6194;BME280;3130;41.564;23.280;2023-03-16T03:35:18;97961.19;;;7.73;67.69
6194;BME280;3130;41.564;23.280;2023-03-16T03:37:47;97967.09;;;7.73;67.62
6194;BME280;3130;41.564;23.280;2023-03-16T03:40:16;97960.38;;;7.72;67.41
6194;BME280;3130;41.564;23.280;2023-03-16T03:42:44;97966.41;;;7.71;67.61
6194;BME280;3130;41.564;23.280;2023-03-16T03:45:12;97972.13;;;7.75;67.15
6194;BME280;3130;41.564;23.280;2023-03-16T03:47:40;97966.47;;;7.70;67.10
6194;BME280;3130;41.564;23.280;2023-03-16T03:50:09;97972.06;;;7.62;67.04
6194;BME280;3130;41.564;23.280;2023-03-16T03:52:36;97982.50;;;7.72;67.07
6194;BME280;3130;41.564;23.280;2023-03-16T03:55:06;97967.44;;;7.55;67.29
6194;BME280;3130;41.564;23.280;2023-03-16T03:57:33;97985.75;;;7.61;67.29
6194;BME280;3130;41.564;23.280;2023-03-16T04:00:00;97972.75;;;7.52;67.51
6194;BME280;3130;41.564;23.280;2023-03-16T04:02:28;97892.44;;;6.92;67.26
6194;BME280;3130;41.564;23.280;2023-03-16T04:04:55;97996.22;;;7.57;67.26
6194;BME280;3130;41.564;23.280;2023-03-16T04:07:22;98007.97;;;7.59;67.49
6194;BME280;3130;41.564;23.280;2023-03-16T04:09:49;98003.94;;;7.69;67.10
6194;BME280;3130;41.564;23.280;2023-03-16T04:12:18;98001.88;;;7.62;67.22
6194;BME280;3130;41.564;23.280;2023-03-16T04:14:45;97986.56;;;7.62;66.59
6194;BME280;3130;41.564;23.280;2023-03-16T04:17:12;98008.13;;;7.70;67.17
6194;BME280;3130;41.564;23.280;2023-03-16T04:19:39;97980.38;;;7.52;66.91
6194;BME280;3130;41.564;23.280;2023-03-16T04:22:07;97984.28;;;7.57;66.92
6194;BME280;3130;41.564;23.280;2023-03-16T04:24:34;98021.03;;;7.81;66.21
6194;BME280;3130;41.564;23.280;2023-03-16T04:27:01;98016.59;;;7.71;66.54
6194;BME280;3130;41.564;23.280;2023-03-16T04:29:30;98002.97;;;7.58;66.64
6194;BME280;3130;41.564;23.280;2023-03-16T04:31:57;98023.53;;;7.69;66.77
6194;BME280;3130;41.564;23.280;2023-03-16T04:34:24;97923.63;;;6.96;67.07
6194;BME280;3130;41.564;23.280;2023-03-16T04:36:52;98033.00;;;7.67;66.56
6194;BME280;3130;41.564;23.280;2023-03-16T04:39:21;98004.91;;;7.40;66.73
6194;BME280;3130;41.564;23.280;2023-03-16T04:41:48;98027.13;;;7.52;67.14
6194;BME280;3130;41.564;23.280;2023-03-16T04:44:16;98024.59;;;7.52;66.28
6194;BME280;3130;41.564;23.280;2023-03-16T04:46:45;98036.88;;;7.60;66.48
6194;BME280;3130;41.564;23.280;2023-03-16T04:49:12;97977.38;;;7.19;66.77
6194;BME280;3130;41.564;23.280;2023-03-16T04:51:39;98050.41;;;7.60;66.78
6194;BME280;3130;41.564;23.280;2023-03-16T04:54:07;98022.50;;;7.45;66.12
6194;BME280;3130;41.564;23.280;2023-03-16T04:56:34;98028.31;;;7.47;66.79
6194;BME280;3130;41.564;23.280;2023-03-16T04:59:01;98062.69;;;7.68;66.25
6194;BME280;3130;41.564;23.280;2023-03-16T05:01:28;98054.72;;;7.60;66.15
6194;BME280;3130;41.564;23.280;2023-03-16T05:03:57;98075.31;;;7.57;66.40
6194;BME280;3130;41.564;23.280;2023-03-16T05:06:24;97984.97;;;6.93;65.91
6194;BME280;3130;41.564;23.280;2023-03-16T05:08:51;98090.44;;;7.60;65.62
6194;BME280;3130;41.564;23.280;2023-03-16T05:11:18;98088.53;;;7.49;66.46
6194;BME280;3130;41.564;23.280;2023-03-16T05:13:46;98098.47;;;7.40;66.07
6194;BME280;3130;41.564;23.280;2023-03-16T05:16:13;98102.66;;;7.41;66.13
6194;BME280;3130;41.564;23.280;2023-03-16T05:18:40;98085.91;;;7.37;66.22
6194;BME280;3130;41.564;23.280;2023-03-16T05:21:13;98100.44;;;7.49;65.44
6194;BME280;3130;41.564;23.280;2023-03-16T05:23:44;98106.72;;;7.57;65.57
6194;BME280;3130;41.564;23.280;2023-03-16T05:26:12;98111.56;;;7.62;65.14
6194;BME280;3130;41.564;23.280;2023-03-16T05:28:39;98115.75;;;7.49;65.04
6194;BME280;3130;41.564;23.280;2023-03-16T05:31:07;98132.34;;;7.56;64.30
6194;BME280;3130;41.564;23.280;2023-03-16T05:33:34;98030.75;;;7.08;64.30
6194;BME280;3130;41.564;23.280;2023-03-16T05:36:01;98126.94;;;7.60;64.31
6194;BME280;3130;41.564;23.280;2023-03-16T05:38:30;98105.28;;;7.53;63.60
6194;BME280;3130;41.564;23.280;2023-03-16T05:40:57;98127.78;;;7.61;63.99
6194;BME280;3130;41.564;23.280;2023-03-16T05:43:26;98147.47;;;7.59;64.31
6194;BME280;3130;41.564;23.280;2023-03-16T05:45:55;98112.59;;;7.31;64.40
6194;BME280;3130;41.564;23.280;2023-03-16T05:48:22;98120.59;;;7.25;64.13
6194;BME280;3130;41.564;23.280;2023-03-16T05:50:50;98144.19;;;7.43;64.36
6194;BME280;3130;41.564;23.280;2023-03-16T05:53:18;98128.16;;;7.41;64.11
6194;BME280;3130;41.564;23.280;2023-03-16T05:55:52;98124.59;;;7.43;64.15
6194;BME280;3130;41.564;23.280;2023-03-16T05:58:19;98115.31;;;7.14;64.27
6194;BME280;3130;41.564;23.280;2023-03-16T06:00:46;98005.53;;;6.62;63.65
6194;BME280;3130;41.564;23.280;2023-03-16T06:03:14;98165.13;;;7.48;63.56
6194;BME280;3130;41.564;23.280;2023-03-16T06:05:41;98121.25;;;7.29;63.13
6194;BME280;3130;41.564;23.280;2023-03-16T06:08:08;98154.72;;;7.65;62.88
6194;BME280;3130;41.564;23.280;2023-03-16T06:10:36;98119.56;;;7.56;62.38
6194;BME280;3130;41.564;23.280;2023-03-16T06:13:22;98165.09;;;7.90;62.07
6194;BME280;3130;41.564;23.280;2023-03-16T06:15:49;98177.31;;;7.98;61.58
6194;BME280;3130;41.564;23.280;2023-03-16T06:18:16;98172.13;;;7.86;61.99
6194;BME280;3130;41.564;23.280;2023-03-16T06:20:43;98151.25;;;7.66;62.03
6194;BME280;3130;41.564;23.280;2023-03-16T06:23:11;98195.81;;;8.02;61.42
6194;BME280;3130;41.564;23.280;2023-03-16T06:25:39;98189.84;;;8.15;60.98
6194;BME280;3130;41.564;23.280;2023-03-16T06:28:07;98165.44;;;8.11;60.31
6194;BME280;3130;41.564;23.280;2023-03-16T06:30:36;98196.50;;;8.32;60.28
6194;BME280;3130;41.564;23.280;2023-03-16T06:33:03;98191.53;;;8.16;60.32
6194;BME280;3130;41.564;23.280;2023-03-16T06:35:30;98198.81;;;7.95;60.79
6194;BME280;3130;41.564;23.280;2023-03-16T06:37:57;98206.19;;;7.99;60.39
6194;BME280;3130;41.564;23.280;2023-03-16T06:40:24;98220.31;;;8.18;60.18
6194;BME280;3130;41.564;23.280;2023-03-16T06:42:52;98220.69;;;8.26;59.99
6194;BME280;3130;41.564;23.280;2023-03-16T06:45:19;98175.19;;;8.19;59.61
6194;BME280;3130;41.564;23.280;2023-03-16T06:47:48;98109.19;;;7.99;58.65
6194;BME280;3130;41.564;23.280;2023-03-16T06:50:15;98213.75;;;8.55;58.34
6194;BME280;3130;41.564;23.280;2023-03-16T06:52:43;98240.41;;;8.77;57.70
6194;BME280;3130;41.564;23.280;2023-03-16T06:55:10;98158.28;;;8.30;57.54
6194;BME280;3130;41.564;23.280;2023-03-16T06:57:39;98161.66;;;8.31;57.13
6194;BME280;3130;41.564;23.280;2023-03-16T07:00:08;98184.22;;;8.51;56.88
6194;BME280;3130;41.564;23.280;2023-03-16T07:02:35;98253.38;;;9.00;56.45
6194;BME280;3130;41.564;23.280;2023-03-16T07:05:07;98260.53;;;8.96;57.27
6194;BME280;3130;41.564;23.280;2023-03-16T07:07:35;98266.06;;;9.02;56.43
6194;BME280;3130;41.564;23.280;2023-03-16T07:10:03;98250.16;;;8.85;56.71
6194;BME280;3130;41.564;23.280;2023-03-16T07:12:30;98245.88;;;8.85;56.90
6194;BME280;3130;41.564;23.280;2023-03-16T07:14:57;98147.00;;;8.47;56.54
6194;BME280;3130;41.564;23.280;2023-03-16T07:17:24;98275.63;;;9.12;55.43
6194;BME280;3130;41.564;23.280;2023-03-16T07:19:51;98243.81;;;8.78;56.41
6194;BME280;3130;41.564;23.280;2023-03-16T07:22:20;98286.31;;;9.05;56.33
6194;BME280;3130;41.564;23.280;2023-03-16T07:24:47;98280.53;;;9.28;55.16
6194;BME280;3130;41.564;23.280;2023-03-16T07:27:20;98254.44;;;9.23;54.49
6194;BME280;3130;41.564;23.280;2023-03-16T07:29:48;98242.28;;;8.88;56.22
6194;BME280;3130;41.564;23.280;2023-03-16T07:32:16;98285.88;;;8.86;56.37
6194;BME280;3130;41.564;23.280;2023-03-16T07:34:44;98288.53;;;8.97;56.24
6194;BME280;3130;41.564;23.280;2023-03-16T07:37:11;98215.69;;;8.51;56.43
6194;BME280;3130;41.564;23.280;2023-03-16T07:39:39;98276.56;;;8.98;55.79
6194;BME280;3130;41.564;23.280;2023-03-16T07:42:07;98257.94;;;8.57;56.88
6194;BME280;3130;41.564;23.280;2023-03-16T07:44:34;98179.91;;;8.11;56.93
6194;BME280;3130;41.564;23.280;2023-03-16T07:47:02;98255.31;;;8.44;57.44
6194;BME280;3130;41.564;23.280;2023-03-16T07:49:29;98299.34;;;8.88;57.38
6194;BME280;3130;41.564;23.280;2023-03-16T07:51:56;98301.28;;;9.11;56.17
6194;BME280;3130;41.564;23.280;2023-03-16T07:54:23;98314.66;;;9.02;56.36
6194;BME280;3130;41.564;23.280;2023-03-16T07:56:52;98321.59;;;8.74;57.30
6194;BME280;3130;41.564;23.280;2023-03-16T07:59:19;98288.88;;;8.79;56.71
6194;BME280;3130;41.564;23.280;2023-03-16T08:01:46;98275.03;;;8.69;56.00
6194;BME280;3130;41.564;23.280;2023-03-16T08:04:13;98319.91;;;8.87;56.24
6194;BME280;3130;41.564;23.280;2023-03-16T08:06:41;98320.28;;;8.81;56.33
6194;BME280;3130;41.564;23.280;2023-03-16T08:09:08;98319.72;;;8.90;55.72
6194;BME280;3130;41.564;23.280;2023-03-16T08:11:36;98322.56;;;9.11;54.46
6194;BME280;3130;41.564;23.280;2023-03-16T08:14:05;98327.50;;;9.66;52.45
6194;BME280;3130;41.564;23.280;2023-03-16T08:16:32;98329.03;;;9.68;51.98
6194;BME280;3130;41.564;23.280;2023-03-16T08:18:59;98262.94;;;9.23;51.72
6194;BME280;3130;41.564;23.280;2023-03-16T08:21:27;98329.34;;;9.25;52.28
6194;BME280;3130;41.564;23.280;2023-03-16T08:23:54;98337.66;;;9.28;52.58
6194;BME280;3130;41.564;23.280;2023-03-16T08:26:22;98341.13;;;9.27;52.15
6194;BME280;3130;41.564;23.280;2023-03-16T08:28:51;98334.06;;;9.31;51.69
6194;BME280;3130;41.564;23.280;2023-03-16T08:31:21;98326.84;;;9.11;51.97
6194;BME280;3130;41.564;23.280;2023-03-16T08:33:49;98349.44;;;9.31;52.20
6194;BME280;3130;41.564;23.280;2023-03-16T08:36:17;98312.22;;;9.13;52.57
6194;BME280;3130;41.564;23.280;2023-03-16T08:38:45;98232.81;;;8.63;51.98
6194;BME280;3130;41.564;23.280;2023-03-16T08:41:12;98346.69;;;9.34;52.13
6194;BME280;3130;41.564;23.280;2023-03-16T08:43:41;98306.53;;;9.34;51.87
6194;BME280;3130;41.564;23.280;2023-03-16T08:46:09;98347.97;;;9.66;50.90
6194;BME280;3130;41.564;23.280;2023-03-16T08:48:39;98338.56;;;9.91;50.73
6194;BME280;3130;41.564;23.280;2023-03-16T08:51:09;98326.56;;;9.67;50.47
6194;BME280;3130;41.564;23.280;2023-03-16T08:53:36;98340.81;;;9.71;51.58
6194;BME280;3130;41.564;23.280;2023-03-16T08:56:05;98361.38;;;9.69;50.84
6194;BME280;3130;41.564;23.280;2023-03-16T08:58:33;98338.44;;;9.55;51.59
6194;BME280;3130;41.564;23.280;2023-03-16T09:01:03;98261.91;;;9.13;51.20
6194;BME280;3130;41.564;23.280;2023-03-16T09:03:31;98294.03;;;9.17;52.00
6194;BME280;3130;41.564;23.280;2023-03-16T09:06:02;98347.34;;;10.01;51.21
6194;BME280;3130;41.564;23.280;2023-03-16T09:08:30;98347.63;;;10.09;50.49
6194;BME280;3130;41.564;23.280;2023-03-16T09:11:00;98347.13;;;10.29;48.58
6194;BME280;3130;41.564;23.280;2023-03-16T09:13:28;98351.31;;;9.93;49.04
6194;BME280;3130;41.564;23.280;2023-03-16T09:15:56;98322.28;;;9.92;49.30
6194;BME280;3130;41.564;23.280;2023-03-16T09:18:24;98349.06;;;10.25;48.80
6194;BME280;3130;41.564;23.280;2023-03-16T09:20:53;98304.41;;;10.04;48.36
6194;BME280;3130;41.564;23.280;2023-03-16T09:23:24;98347.13;;;10.16;48.68
6194;BME280;3130;41.564;23.280;2023-03-16T09:25:52;98306.72;;;9.83;49.56
6194;BME280;3130;41.564;23.280;2023-03-16T09:28:22;98353.28;;;10.14;49.48
6194;BME280;3130;41.564;23.280;2023-03-16T09:30:49;98281.31;;;9.92;48.62
6194;BME280;3130;41.564;23.280;2023-03-16T09:33:16;98217.44;;;9.91;48.49
6194;BME280;3130;41.564;23.280;2023-03-16T09:35:44;98350.91;;;10.84;46.97
6194;BME280;3130;41.564;23.280;2023-03-16T09:38:11;98302.28;;;10.47;47.30
6194;BME280;3130;41.564;23.280;2023-03-16T09:40:40;98266.63;;;10.44;47.61
6194;BME280;3130;41.564;23.280;2023-03-16T09:43:19;98281.03;;;10.57;46.61
6194;BME280;3130;41.564;23.280;2023-03-16T09:45:59;98266.16;;;10.62;46.02
6194;BME280;3130;41.564;23.280;2023-03-16T09:48:30;98308.69;;;10.77;46.15
6194;BME280;3130;41.564;23.280;2023-03-16T09:51:00;98352.63;;;11.43;45.66
6194;BME280;3130;41.564;23.280;2023-03-16T09:53:31;98344.69;;;11.46;45.09
6194;BME280;3130;41.564;23.280;2023-03-16T09:56:02;98257.22;;;10.91;44.95
6194;BME280;3130;41.564;23.280;2023-03-16T09:58:30;98280.56;;;10.99;44.37
6194;BME280;3130;41.564;23.280;2023-03-16T10:01:05;98363.63;;;11.21;45.20
6194;BME280;3130;41.564;23.280;2023-03-16T10:03:51;98365.13;;;11.24;45.68
6194;BME280;3130;41.564;23.280;2023-03-16T10:06:24;98363.75;;;11.07;45.78
6194;BME280;3130;41.564;23.280;2023-03-16T10:08:57;98354.13;;;11.45;45.14
6194;BME280;3130;41.564;23.280;2023-03-16T10:11:30;98371.22;;;11.34;44.71
6194;BME280;3130;41.564;23.280;2023-03-16T10:14:03;98303.22;;;10.82;45.75
6194;BME280;3130;41.564;23.280;2023-03-16T10:16:39;98332.09;;;10.96;46.38
6194;BME280;3130;41.564;23.280;2023-03-16T10:19:14;98290.22;;;11.19;45.26
6194;BME280;3130;41.564;23.280;2023-03-16T10:21:44;98354.03;;;11.70;44.65
6194;BME280;3130;41.564;23.280;2023-03-16T10:24:22;98257.81;;;10.95;45.01
6194;BME280;3130;41.564;23.280;2023-03-16T10:26:56;98296.19;;;11.19;44.25
6194;BME280;3130;41.564;23.280;2023-03-16T10:29:25;98358.44;;;11.57;44.54
6194;BME280;3130;41.564;23.280;2023-03-16T10:31:54;98363.88;;;11.76;44.57
6194;BME280;3130;41.564;23.280;2023-03-16T10:34:25;98367.16;;;11.08;45.26
6194;BME280;3130;41.564;23.280;2023-03-16T10:36:53;98287.34;;;10.41;45.54
6194;BME280;3130;41.564;23.280;2023-03-16T10:39:21;98250.63;;;10.04;46.46
6194;BME280;3130;41.564;23.280;2023-03-16T10:41:55;98362.00;;;10.85;46.14
6194;BME280;3130;41.564;23.280;2023-03-16T10:44:25;98362.44;;;11.02;45.32
6194;BME280;3130;41.564;23.280;2023-03-16T10:46:59;98279.09;;;10.48;45.96
6194;BME280;3130;41.564;23.280;2023-03-16T10:49:37;98356.91;;;11.42;44.86
6194;BME280;3130;41.564;23.280;2023-03-16T10:52:13;98277.75;;;10.91;44.75
6194;BME280;3130;41.564;23.280;2023-03-16T10:54:48;98224.19;;;10.40;44.32
6194;BME280;3130;41.564;23.280;2023-03-16T10:57:22;98224.91;;;10.42;45.22
6194;BME280;3130;41.564;23.280;2023-03-16T10:59:52;98280.50;;;10.65;45.45
6194;BME280;3130;41.564;23.280;2023-03-16T11:02:23;98363.88;;;11.29;44.88
6194;BME280;3130;41.564;23.280;2023-03-16T11:04:52;98365.00;;;11.25;44.62
6194;BME280;3130;41.564;23.280;2023-03-16T11:07:21;98329.31;;;10.63;45.28
6194;BME280;3130;41.564;23.280;2023-03-16T11:09:50;98359.50;;;11.19;45.29
6194;BME280;3130;41.564;23.280;2023-03-16T11:12:24;98322.97;;;11.15;45.25
6194;BME280;3130;41.564;23.280;2023-03-16T11:14:52;98352.75;;;11.76;44.34
6194;BME280;3130;41.564;23.280;2023-03-16T11:17:24;98351.53;;;12.14;43.64
6194;BME280;3130;41.564;23.280;2023-03-16T11:19:57;98337.91;;;12.35;42.61
6194;BME280;3130;41.564;23.280;2023-03-16T11:22:26;98295.03;;;12.25;41.44
6194;BME280;3130;41.564;23.280;2023-03-16T11:25:01;98347.38;;;12.24;42.08
6194;BME280;3130;41.564;23.280;2023-03-16T11:27:36;98294.66;;;11.97;41.70
6194;BME280;3130;41.564;23.280;2023-03-16T11:30:13;98354.13;;;12.03;42.75
6194;BME280;3130;41.564;23.280;2023-03-16T11:32:45;98350.16;;;12.21;42.16
6194;BME280;3130;41.564;23.280;2023-03-16T11:35:15;98330.63;;;11.97;42.25
6194;BME280;3130;41.564;23.280;2023-03-16T11:38:12;98325.56;;;11.84;42.93
6194;BME280;3130;41.564;23.280;2023-03-16T11:40:52;98318.09;;;11.81;42.45
6194;BME280;3130;41.564;23.280;2023-03-16T11:43:42;98264.69;;;11.28;42.90
6194;BME280;3130;41.564;23.280;2023-03-16T11:46:14;98323.50;;;11.89;42.48
6194;BME280;3130;41.564;23.280;2023-03-16T11:48:50;98343.75;;;12.15;42.17
6194;BME280;3130;41.564;23.280;2023-03-16T11:51:30;98333.34;;;12.17;41.71
6194;BME280;3130;41.564;23.280;2023-03-16T11:54:10;98260.22;;;12.10;41.46
6194;BME280;3130;41.564;23.280;2023-03-16T11:56:43;98324.34;;;12.66;40.82
6194;BME280;3130;41.564;23.280;2023-03-16T11:59:34;98245.84;;;12.18;40.86
6194;BME280;3130;41.564;23.280;2023-03-16T12:02:20;98339.88;;;12.98;40.57
6194;BME280;3130;41.564;23.280;2023-03-16T12:08:15;98311.50;;;12.55;40.62
6194;BME280;3130;41.564;23.280;2023-03-16T12:10:51;98332.63;;;12.48;41.56
6194;BME280;3130;41.564;23.280;2023-03-16T12:13:38;98333.34;;;12.61;40.79
6194;BME280;3130;41.564;23.280;2023-03-16T12:16:16;98258.66;;;12.51;40.76
6194;BME280;3130;41.564;23.280;2023-03-16T12:18:48;98332.75;;;13.21;40.08
6194;BME280;3130;41.564;23.280;2023-03-16T12:21:20;98326.34;;;13.16;39.79
6194;BME280;3130;41.564;23.280;2023-03-16T12:23:50;98264.88;;;12.27;40.09
6194;BME280;3130;41.564;23.280;2023-03-16T12:26:20;98337.91;;;12.90;40.46
6194;BME280;3130;41.564;23.280;2023-03-16T12:28:49;98329.91;;;12.93;40.20
6194;BME280;3130;41.564;23.280;2023-03-16T12:31:24;98337.44;;;12.52;40.78
6194;BME280;3130;41.564;23.280;2023-03-16T12:34:02;98283.81;;;12.04;41.43
6194;BME280;3130;41.564;23.280;2023-03-16T12:36:45;98351.66;;;12.02;42.18
6194;BME280;3130;41.564;23.280;2023-03-16T12:39:23;98345.81;;;12.10;41.96
6194;BME280;3130;41.564;23.280;2023-03-16T12:42:08;98343.06;;;12.35;42.00
6194;BME280;3130;41.564;23.280;2023-03-16T12:44:39;98280.31;;;12.05;41.12
6194;BME280;3130;41.564;23.280;2023-03-16T12:47:18;98320.09;;;11.89;42.09
6194;BME280;3130;41.564;23.280;2023-03-16T12:49:50;98223.13;;;11.47;41.84
6194;BME280;3130;41.564;23.280;2023-03-16T12:52:17;98278.06;;;11.79;41.94
6194;BME280;3130;41.564;23.280;2023-03-16T12:54:49;98240.97;;;11.48;42.32
6194;BME280;3130;41.564;23.280;2023-03-16T12:57:18;98289.56;;;11.62;42.86
6194;BME280;3130;41.564;23.280;2023-03-16T12:59:47;98346.47;;;11.80;43.01
6194;BME280;3130;41.564;23.280;2023-03-16T13:02:19;98357.41;;;11.71;42.99
6194;BME280;3130;41.564;23.280;2023-03-16T13:04:56;98265.72;;;11.15;42.73
6194;BME280;3130;41.564;23.280;2023-03-16T13:07:26;98305.59;;;11.77;42.15
6194;BME280;3130;41.564;23.280;2023-03-16T13:09:58;98334.97;;;12.18;41.75
6194;BME280;3130;41.564;23.280;2023-03-16T13:12:27;98337.56;;;12.29;41.34
6194;BME280;3130;41.564;23.280;2023-03-16T13:14:56;98344.81;;;12.57;41.27
6194;BME280;3130;41.564;23.280;2023-03-16T13:17:27;98275.22;;;11.60;41.56
6194;BME280;3130;41.564;23.280;2023-03-16T13:20:01;98347.75;;;11.74;41.81
6194;BME280;3130;41.564;23.280;2023-03-16T13:22:41;98372.88;;;11.93;41.99
6194;BME280;3130;41.564;23.280;2023-03-16T13:25:15;98279.94;;;11.19;42.60
6194;BME280;3130;41.564;23.280;2023-03-16T13:27:48;98370.09;;;11.61;42.77
6194;BME280;3130;41.564;23.280;2023-03-16T13:30:20;98379.59;;;11.48;42.49
6194;BME280;3130;41.564;23.280;2023-03-16T13:32:52;98379.44;;;11.62;42.38
6194;BME280;3130;41.564;23.280;2023-03-16T13:35:23;98374.06;;;11.54;42.86
6194;BME280;3130;41.564;23.280;2023-03-16T13:37:52;98324.41;;;10.96;42.89